createdAt,value
2018-04-08T00:03:16.605Z,18.47
2018-04-08T00:09:20.950Z,17.87
2018-04-08T00:15:25.295Z,14.43
2018-04-08T00:21:29.648Z,16.50
2018-04-08T00:27:33.990Z,16.20
2018-04-08T00:33:39.103Z,15.50
2018-04-08T00:39:43.455Z,15.30
2018-04-08T00:45:47.832Z,16.57
2018-04-08T00:51:52.162Z,14.43
2018-04-08T00:57:56.500Z,13.07
2018-04-08T01:04:00.537Z,11.27
2018-04-08T01:10:04.566Z,10.00
2018-04-08T01:16:08.594Z,11.60
2018-04-08T01:22:12.703Z,12.50
2018-04-08T01:28:17.043Z,11.30
2018-04-08T01:34:21.406Z,11.60
2018-04-08T01:40:25.757Z,11.67
2018-04-08T01:46:30.094Z,9.73
2018-04-08T01:52:34.473Z,9.93
2018-04-08T01:58:39.598Z,11.90
2018-04-08T02:04:43.949Z,11.87
2018-04-08T02:10:48.287Z,11.63
2018-04-08T02:16:52.641Z,11.10
2018-04-08T02:22:57.754Z,11.60
2018-04-08T02:29:02.105Z,10.77
2018-04-08T02:35:06.461Z,12.03
2018-04-08T02:41:10.794Z,10.03
2018-04-08T02:47:15.152Z,9.73
2018-04-08T02:53:19.502Z,10.30
2018-04-08T02:59:24.613Z,10.30
2018-04-08T03:05:28.958Z,11.17
2018-04-08T03:11:33.290Z,11.20
2018-04-08T03:17:37.631Z,10.23
2018-04-08T03:23:41.975Z,10.13
2018-04-08T03:29:46.317Z,10.83
2018-04-08T03:35:50.653Z,10.50
2018-04-08T03:41:54.996Z,10.27
2018-04-08T03:47:59.335Z,10.10
2018-04-08T03:54:03.691Z,10.80
2018-04-08T04:00:08.027Z,10.70
2018-04-08T04:06:12.351Z,9.83
2018-04-08T04:12:16.686Z,10.63
2018-04-08T04:18:38.578Z,10.40
2018-04-08T04:25:20.500Z,12.23
2018-04-08T04:31:24.842Z,10.67
2018-04-08T04:37:29.179Z,10.83
2018-04-08T04:43:33.533Z,10.20
2018-04-08T04:49:37.864Z,8.00
2018-04-08T04:55:42.201Z,7.40
2018-04-08T05:01:46.531Z,8.43
2018-04-08T05:07:50.878Z,7.07
2018-04-08T05:13:55.225Z,7.60
2018-04-08T05:19:59.554Z,8.30
2018-04-08T05:26:03.921Z,8.40
2018-04-08T05:32:08.277Z,7.27
2018-04-08T05:38:13.379Z,8.33
2018-04-08T05:44:17.724Z,8.20
2018-04-08T05:50:22.058Z,8.00
2018-04-08T05:56:26.403Z,8.13
2018-04-08T06:02:30.749Z,7.00
2018-04-08T06:08:35.078Z,6.73
2018-04-08T06:14:39.437Z,7.43
2018-04-08T06:20:43.760Z,6.70
2018-04-08T06:26:48.106Z,7.87
2018-04-08T06:32:52.471Z,7.00
2018-04-08T06:38:56.820Z,8.33
2018-04-08T06:45:01.158Z,6.83
2018-04-08T06:51:05.500Z,7.60
2018-04-08T06:57:09.859Z,8.53
2018-04-08T07:03:14.203Z,7.60
2018-04-08T07:09:18.532Z,7.23
2018-04-08T07:15:22.887Z,8.73
2018-04-08T07:21:27.229Z,6.87
2018-04-08T07:27:32.370Z,7.17
2018-04-08T07:33:36.753Z,7.87
2018-04-08T07:39:41.081Z,8.83
2018-04-08T07:45:45.417Z,8.20
2018-04-08T07:51:50.525Z,8.00
2018-04-08T07:57:54.858Z,8.33
2018-04-08T08:03:59.204Z,8.70
2018-04-08T08:10:03.548Z,8.37
2018-04-08T08:16:07.899Z,8.53
2018-04-08T08:22:12.258Z,9.40
2018-04-08T08:28:16.612Z,8.50
2018-04-08T08:34:21.712Z,8.10
2018-04-08T08:40:26.062Z,12.33
2018-04-08T08:46:31.193Z,11.27
2018-04-08T08:52:35.551Z,10.33
2018-04-08T08:58:39.896Z,10.60
2018-04-08T09:04:44.251Z,9.37
2018-04-08T09:10:48.601Z,9.67
2018-04-08T09:16:52.972Z,10.10
2018-04-08T09:23:03.739Z,10.17
2018-04-08T09:29:09.662Z,9.27
2018-04-08T09:35:14.078Z,9.17
2018-04-08T09:41:18.462Z,10.20
2018-04-08T09:47:22.905Z,9.93
2018-04-08T09:53:27.282Z,10.37
2018-04-08T09:59:31.720Z,9.67
2018-04-08T10:05:36.153Z,9.70
2018-04-08T10:11:41.307Z,10.00
2018-04-08T10:17:45.689Z,10.73
2018-04-08T10:23:50.868Z,9.40
2018-04-08T10:29:55.270Z,9.30
2018-04-08T10:35:59.626Z,10.40
2018-04-08T10:42:03.975Z,10.23
2018-04-08T10:48:09.145Z,10.30
2018-04-08T10:54:14.269Z,11.00
2018-04-08T11:00:18.632Z,11.03
2018-04-08T11:06:23.754Z,11.83
2018-04-08T11:12:28.109Z,11.60
2018-04-08T11:18:32.447Z,11.47
2018-04-08T11:24:36.814Z,11.57
2018-04-08T11:30:41.168Z,11.80
2018-04-08T11:36:46.296Z,11.80
2018-04-08T11:42:50.652Z,11.93
2018-04-08T11:48:55.767Z,12.13
2018-04-08T11:55:00.965Z,12.70
2018-04-08T12:01:05.343Z,11.00
2018-04-08T12:07:09.718Z,11.30
2018-04-08T12:13:14.902Z,12.63
2018-04-08T12:19:19.241Z,11.90
2018-04-08T12:25:23.598Z,11.70
2018-04-08T12:31:28.723Z,10.57
2018-04-08T12:37:33.073Z,10.60
2018-04-08T12:43:37.422Z,9.30
2018-04-08T12:49:41.805Z,9.93
2018-04-08T12:55:46.923Z,10.00
2018-04-08T13:01:51.277Z,10.50
2018-04-08T13:07:55.633Z,9.87
2018-04-08T13:14:00.762Z,8.30
2018-04-08T13:20:05.106Z,6.90
2018-04-08T13:26:09.467Z,5.43
2018-04-08T13:32:13.818Z,5.40
2018-04-08T13:38:18.940Z,4.80
2018-04-08T13:44:23.274Z,5.27
2018-04-08T13:50:27.600Z,6.20
2018-04-08T13:56:31.946Z,8.17
2018-04-08T14:02:36.292Z,6.90
2018-04-08T14:08:40.646Z,6.03
2018-04-08T14:14:45.021Z,6.00
2018-04-08T14:20:50.179Z,5.40
2018-04-08T14:26:54.523Z,5.40
2018-04-08T14:32:59.641Z,5.23
2018-04-08T14:39:03.985Z,4.67
2018-04-08T14:45:08.362Z,4.07
2018-04-08T14:51:13.541Z,3.40
2018-04-08T14:57:17.949Z,3.20
2018-04-08T15:03:22.376Z,4.13
2018-04-08T15:09:26.765Z,3.07
2018-04-08T15:15:31.183Z,3.73
2018-04-08T15:21:36.356Z,4.40
2018-04-08T15:27:40.765Z,6.10
2018-04-08T15:33:45.166Z,2.93
2018-04-08T15:39:49.569Z,3.47
2018-04-08T15:45:53.926Z,7.63
2018-04-08T15:51:58.267Z,3.57
2018-04-08T15:58:02.630Z,3.87
2018-04-08T16:04:06.972Z,3.40
2018-04-08T16:10:11.314Z,3.40
2018-04-08T16:16:15.664Z,3.67
2018-04-08T16:22:20.018Z,2.33
2018-04-08T16:28:24.364Z,2.80
2018-04-08T16:34:28.707Z,3.17
2018-04-08T16:40:33.046Z,3.60
2018-04-08T16:46:37.395Z,2.73
2018-04-08T16:52:41.724Z,3.20
2018-04-08T16:58:46.068Z,2.93
2018-04-08T17:04:50.406Z,3.50
2018-04-08T17:10:54.819Z,8.60
2018-04-08T17:16:59.163Z,8.43
2018-04-08T17:23:03.523Z,12.70
2018-04-08T17:29:07.871Z,12.63
2018-04-08T17:35:12.218Z,13.37
2018-04-08T17:41:16.591Z,13.50
2018-04-08T17:47:21.719Z,14.07
2018-04-08T17:53:26.061Z,15.50
2018-04-08T17:59:30.437Z,17.07
2018-04-08T18:05:35.568Z,17.57
2018-04-08T18:11:39.917Z,17.00
2018-04-08T18:17:44.255Z,17.50
2018-04-08T18:23:48.635Z,19.17
2018-04-08T18:29:53.727Z,17.70
2018-04-08T18:35:58.078Z,18.93
2018-04-08T18:42:02.430Z,18.10
2018-04-08T18:48:06.775Z,20.17
2018-04-08T18:54:11.132Z,18.70
2018-04-08T19:00:16.249Z,18.80
2018-04-08T19:06:20.598Z,18.67
2018-04-08T19:12:24.982Z,19.47
2018-04-08T19:18:29.330Z,18.20
2018-04-08T19:24:34.436Z,19.93
2018-04-08T19:30:38.789Z,18.47
2018-04-08T19:36:43.154Z,18.87
2018-04-08T19:42:48.269Z,19.00
2018-04-08T19:48:52.663Z,18.63
2018-04-08T19:54:57.797Z,18.60
2018-04-08T20:01:02.138Z,17.43
2018-04-08T20:07:06.478Z,18.43
2018-04-08T20:13:10.833Z,19.10
2018-04-08T20:19:15.182Z,18.43
2018-04-08T20:25:20.290Z,18.53
2018-04-08T20:31:24.647Z,19.30
2018-04-08T20:37:29.211Z,20.30
2018-04-08T20:43:33.582Z,21.57
2018-04-08T20:49:37.931Z,21.13
2018-04-08T20:55:42.300Z,24.10
2018-04-08T21:01:46.655Z,25.87
2018-04-08T21:07:51.019Z,24.50
2018-04-08T21:13:55.437Z,24.07
2018-04-08T21:19:59.791Z,25.90
2018-04-08T21:26:04.153Z,24.93
2018-04-08T21:32:08.494Z,25.80
2018-04-08T21:38:13.608Z,24.07
2018-04-08T21:44:17.956Z,25.90
2018-04-08T21:50:22.302Z,24.83
2018-04-08T21:56:26.659Z,24.63
2018-04-08T22:02:31.009Z,26.03
2018-04-08T22:08:36.137Z,24.70
2018-04-08T22:14:40.496Z,26.80
2018-04-08T22:20:44.836Z,25.53
2018-04-08T22:26:49.177Z,27.60
2018-04-08T22:32:53.538Z,26.70
2018-04-08T22:38:58.638Z,27.40
2018-04-08T22:45:02.989Z,25.67
2018-04-08T22:51:07.339Z,28.20
2018-04-08T22:57:11.686Z,30.27
2018-04-08T23:03:16.031Z,31.17
2018-04-08T23:09:20.382Z,31.27
2018-04-08T23:15:24.742Z,30.03
2018-04-08T23:21:29.865Z,29.33
2018-04-08T23:27:34.231Z,30.00
2018-04-08T23:33:38.573Z,34.20
2018-04-08T23:39:42.930Z,32.90
2018-04-08T23:45:48.044Z,34.30
2018-04-08T23:51:52.394Z,32.27
2018-04-08T23:57:56.739Z,33.37
